createdAt,value
2023-05-01T00:01:59.584Z,20.83
2023-05-01T00:04:26.524Z,17.83
2023-05-01T00:06:53.484Z,21.92
2023-05-01T00:09:20.234Z,17.77
2023-05-01T00:11:46.969Z,24.05
2023-05-01T00:14:13.602Z,23.63
2023-05-01T00:16:40.351Z,19.45
2023-05-01T00:19:07.028Z,18.88
2023-05-01T00:21:33.717Z,18.88
2023-05-01T00:24:00.357Z,21.65
2023-05-01T00:26:30.576Z,20.98
2023-05-01T00:28:58.387Z,27.38
2023-05-01T00:31:26.106Z,19.75
2023-05-01T00:33:53.316Z,25.35
2023-05-01T00:36:20.426Z,17.70
2023-05-01T00:38:47.152Z,18.10
2023-05-01T00:41:13.855Z,16.60
2023-05-01T00:43:40.493Z,24.65
2023-05-01T00:46:08.063Z,20.05
2023-05-01T00:48:35.249Z,22.38
2023-05-01T00:51:05.057Z,20.77
2023-05-01T00:53:33.827Z,19.23
2023-05-01T00:56:00.999Z,20.48
2023-05-01T00:58:27.902Z,16.05
2023-05-01T01:00:55.348Z,18.15
2023-05-01T01:03:22.043Z,17.92
2023-05-01T01:06:19.217Z,15.57
2023-05-01T01:09:27.557Z,17.58
2023-05-01T01:12:06.823Z,19.98
2023-05-01T01:14:45.271Z,28.85
2023-05-01T01:17:45.104Z,32.13
2023-05-01T01:20:32.716Z,43.97
2023-05-01T01:23:21.257Z,40.10
2023-05-01T01:26:03.618Z,36.47
2023-05-01T01:28:48.998Z,30.55
2023-05-01T01:31:18.786Z,30.83
2023-05-01T01:33:55.455Z,28.02
2023-05-01T01:36:40.721Z,27.45
2023-05-01T01:39:30.598Z,35.33
2023-05-01T01:41:59.362Z,30.13
2023-05-01T01:44:34.830Z,38.17
2023-05-01T01:47:12.875Z,34.78
2023-05-01T01:49:44.879Z,27.33
2023-05-01T01:52:14.229Z,26.70
2023-05-01T01:54:49.942Z,28.35
2023-05-01T01:57:17.929Z,27.23
2023-05-01T01:59:45.278Z,29.63
2023-05-01T02:02:12.690Z,30.92
2023-05-01T02:04:39.962Z,31.65
2023-05-01T02:07:07.333Z,29.58
2023-05-01T02:09:34.880Z,33.45
2023-05-01T02:12:02.966Z,25.92
2023-05-01T02:14:30.313Z,29.58
2023-05-01T02:16:58.895Z,38.17
2023-05-01T02:19:26.363Z,37.40
2023-05-01T02:21:55.729Z,53.30
2023-05-01T02:24:24.066Z,27.17
2023-05-01T02:26:55.439Z,47.97
2023-05-01T02:29:22.130Z,62.30
2023-05-01T02:31:48.900Z,44.72
2023-05-01T02:34:15.740Z,40.55
2023-05-01T02:36:42.706Z,43.88
2023-05-01T02:39:09.373Z,21.85
2023-05-01T02:41:37.540Z,11.55
2023-05-01T02:44:05.274Z,13.75
2023-05-01T02:46:34.526Z,16.20
2023-05-01T02:49:03.132Z,7.95
2023-05-01T02:51:31.650Z,8.73
2023-05-01T02:53:59.841Z,7.80
2023-05-01T02:56:28.156Z,9.40
2023-05-01T02:58:55.251Z,8.38
2023-05-01T03:01:22.064Z,9.38
2023-05-01T03:03:48.856Z,9.85
2023-05-01T03:06:15.698Z,7.03
2023-05-01T03:08:42.969Z,8.93
2023-05-01T03:11:09.628Z,14.95
2023-05-01T03:13:36.298Z,10.18
2023-05-01T03:16:04.570Z,9.75
2023-05-01T03:18:31.409Z,11.32
2023-05-01T03:20:58.170Z,17.42
2023-05-01T03:23:25.217Z,21.88
2023-05-01T03:25:51.933Z,19.65
2023-05-01T03:28:18.653Z,22.73
2023-05-01T03:30:45.537Z,23.60
2023-05-01T03:33:12.329Z,27.25
2023-05-01T03:35:39.183Z,24.63
2023-05-01T03:38:06.079Z,28.60
2023-05-01T03:40:32.855Z,23.77
2023-05-01T03:42:59.519Z,22.08
2023-05-01T03:45:26.171Z,23.98
2023-05-01T03:47:53.167Z,31.05
2023-05-01T03:50:19.809Z,43.45
2023-05-01T03:52:46.626Z,23.95
2023-05-01T03:55:13.334Z,30.52
2023-05-01T03:57:40.038Z,28.17
2023-05-01T04:00:07.399Z,27.35
2023-05-01T04:02:34.216Z,26.95
2023-05-01T04:05:00.931Z,26.70
2023-05-01T04:07:27.643Z,25.55
2023-05-01T04:09:54.517Z,32.90
2023-05-01T04:12:21.483Z,34.13
2023-05-01T04:14:48.138Z,42.95
2023-05-01T04:17:14.873Z,32.20
2023-05-01T04:19:41.668Z,32.75
2023-05-01T04:22:08.299Z,29.25
2023-05-01T04:24:34.978Z,40.75
2023-05-01T04:27:01.621Z,35.40
2023-05-01T04:29:28.297Z,28.92
2023-05-01T04:31:54.970Z,37.30
2023-05-01T04:34:21.659Z,29.08
2023-05-01T04:36:48.385Z,29.75
2023-05-01T04:39:15.965Z,32.40
2023-05-01T04:41:42.605Z,30.05
2023-05-01T04:44:09.267Z,29.27
2023-05-01T04:46:35.989Z,35.08
2023-05-01T04:49:02.749Z,30.25
2023-05-01T04:51:29.669Z,30.48
2023-05-01T04:53:56.346Z,37.15
2023-05-01T04:56:23.181Z,26.95
2023-05-01T04:58:49.906Z,33.17
2023-05-01T05:01:16.666Z,43.33
2023-05-01T05:03:43.539Z,33.03
2023-05-01T05:06:11.419Z,35.75
2023-05-01T05:08:38.321Z,30.23
2023-05-01T05:11:04.989Z,37.50
2023-05-01T05:13:31.681Z,34.10
2023-05-01T05:15:58.370Z,36.65
2023-05-01T05:18:25.173Z,30.70
2023-05-01T05:20:51.923Z,30.42
2023-05-01T05:23:18.617Z,32.55
2023-05-01T05:25:45.460Z,29.58
2023-05-01T05:28:12.193Z,27.25
2023-05-01T05:30:38.896Z,28.40
2023-05-01T05:33:08.830Z,27.92
2023-05-01T05:35:35.569Z,29.40
2023-05-01T05:38:02.237Z,33.67
2023-05-01T05:40:28.881Z,31.15
2023-05-01T05:42:56.716Z,28.73
2023-05-01T05:45:23.869Z,32.85
2023-05-01T05:47:50.731Z,31.65
2023-05-01T05:50:17.542Z,26.02
2023-05-01T05:52:44.204Z,27.65
2023-05-01T05:55:10.980Z,32.65
2023-05-01T05:57:37.911Z,23.92
2023-05-01T06:00:05.720Z,30.63
2023-05-01T06:02:33.563Z,31.25
2023-05-01T06:05:00.902Z,36.00
2023-05-01T06:07:28.887Z,32.05
2023-05-01T06:09:55.940Z,30.55
2023-05-01T06:12:23.153Z,30.30
2023-05-01T06:14:50.684Z,34.35
2023-05-01T06:17:17.363Z,53.45
2023-05-01T06:19:44.061Z,30.52
2023-05-01T06:22:10.736Z,26.55
2023-05-01T06:24:37.595Z,28.50
2023-05-01T06:27:04.317Z,25.95
2023-05-01T06:29:31.135Z,35.28
2023-05-01T06:31:57.931Z,27.45
2023-05-01T06:34:24.701Z,26.10
2023-05-01T06:36:51.452Z,23.10
2023-05-01T06:39:18.120Z,26.13
2023-05-01T06:41:48.257Z,19.48
2023-05-01T06:44:15.538Z,15.20
2023-05-01T06:46:42.411Z,15.23
2023-05-01T06:49:09.201Z,16.58
2023-05-01T06:51:36.006Z,15.80
2023-05-01T06:54:02.800Z,15.98
2023-05-01T06:56:29.509Z,13.15
2023-05-01T06:58:56.318Z,14.25
2023-05-01T07:01:23.038Z,8.27
2023-05-01T07:03:49.793Z,13.38
2023-05-01T07:06:16.454Z,8.32
2023-05-01T07:08:43.225Z,12.68
2023-05-01T07:11:09.964Z,12.63
2023-05-01T07:13:36.679Z,11.77
2023-05-01T07:16:03.461Z,10.85
2023-05-01T07:18:30.285Z,12.23
2023-05-01T07:20:56.929Z,14.75
2023-05-01T07:23:25.449Z,17.65
2023-05-01T07:25:53.095Z,16.00
2023-05-01T07:28:20.560Z,10.43
2023-05-01T07:30:47.441Z,10.05
2023-05-01T07:33:14.237Z,8.70
2023-05-01T07:35:41.483Z,8.10
2023-05-01T07:38:08.823Z,9.93
2023-05-01T07:40:36.237Z,19.65
2023-05-01T07:43:02.989Z,9.35
2023-05-01T07:45:29.689Z,12.82
2023-05-01T07:47:57.206Z,10.57
2023-05-01T07:50:25.089Z,10.48
2023-05-01T07:52:51.858Z,10.55
2023-05-01T07:55:19.317Z,9.80
2023-05-01T07:57:47.126Z,12.40
2023-05-01T08:00:14.468Z,7.05
2023-05-01T08:02:41.623Z,10.05
2023-05-01T08:05:08.561Z,6.93
2023-05-01T08:07:35.441Z,9.88
2023-05-01T08:10:02.532Z,7.75
2023-05-01T08:12:29.911Z,10.73
2023-05-01T08:14:56.705Z,11.55
2023-05-01T08:17:23.389Z,7.25
2023-05-01T08:19:50.401Z,7.85
2023-05-01T08:22:17.107Z,8.48
2023-05-01T08:24:44.101Z,7.75
2023-05-01T08:27:11.010Z,10.60
2023-05-01T08:29:37.709Z,9.43
2023-05-01T08:32:04.402Z,9.65
2023-05-01T08:34:31.096Z,13.18
2023-05-01T08:36:59.526Z,10.50
2023-05-01T08:39:26.201Z,7.60
2023-05-01T08:41:53.145Z,6.70
2023-05-01T08:44:26.354Z,11.00
2023-05-01T08:47:18.211Z,10.68
2023-05-01T08:49:46.883Z,10.25
2023-05-01T08:52:14.920Z,8.02
2023-05-01T08:54:45.273Z,7.18
2023-05-01T08:57:12.854Z,8.13
2023-05-01T08:59:40.670Z,9.15
2023-05-01T09:02:09.336Z,11.20
2023-05-01T09:07:05.554Z,7.38
2023-05-01T09:09:33.071Z,9.32
2023-05-01T09:12:26.002Z,10.65
2023-05-01T09:14:54.340Z,10.35
2023-05-01T09:17:22.200Z,16.25
2023-05-01T09:19:49.823Z,8.90
2023-05-01T09:22:18.742Z,9.68
2023-05-01T09:27:13.969Z,10.25
2023-05-01T09:29:40.774Z,11.20
2023-05-01T09:32:13.329Z,8.25
2023-05-01T09:34:40.104Z,9.50
2023-05-01T09:37:06.892Z,9.95
2023-05-01T09:39:33.640Z,7.07
2023-05-01T09:42:00.391Z,8.40
2023-05-01T09:44:27.165Z,11.30
2023-05-01T09:46:54.757Z,14.02
2023-05-01T09:49:44.643Z,7.72
2023-05-01T09:52:12.002Z,12.02
2023-05-01T09:54:38.650Z,12.45
2023-05-01T09:57:05.599Z,9.02
2023-05-01T09:59:34.445Z,11.15
2023-05-01T10:04:35.001Z,8.85
2023-05-01T10:07:14.404Z,9.00
2023-05-01T10:09:42.358Z,7.53
2023-05-01T10:12:09.161Z,8.85
2023-05-01T10:14:56.080Z,13.10
2023-05-01T10:17:22.929Z,9.48
2023-05-01T10:19:51.523Z,10.90
2023-05-01T10:22:18.397Z,8.80
2023-05-01T10:24:47.871Z,7.70
2023-05-01T10:27:14.653Z,11.43
2023-05-01T10:29:44.732Z,9.20
2023-05-01T10:32:11.625Z,8.10
2023-05-01T10:35:06.071Z,7.40
2023-05-01T10:38:09.610Z,8.50
2023-05-01T10:40:39.088Z,9.05
2023-05-01T10:43:31.871Z,8.73
2023-05-01T10:46:07.751Z,8.80
2023-05-01T10:48:40.868Z,7.97
2023-05-01T10:51:18.140Z,12.68
2023-05-01T10:53:46.181Z,11.43
2023-05-01T10:56:33.936Z,8.73
2023-05-01T10:59:04.782Z,8.52
2023-05-01T11:01:39.865Z,7.93
2023-05-01T11:04:22.077Z,9.95
2023-05-01T11:07:15.590Z,7.35
2023-05-01T11:12:45.084Z,7.57
2023-05-01T11:15:12.743Z,7.88
2023-05-01T11:17:42.998Z,8.25
2023-05-01T11:20:11.464Z,9.00
2023-05-01T11:22:40.112Z,9.45
2023-05-01T11:25:23.617Z,9.70
2023-05-01T11:27:53.066Z,11.75
2023-05-01T11:30:20.018Z,8.05
2023-05-01T11:32:48.345Z,8.90
2023-05-01T11:35:20.968Z,7.75
2023-05-01T11:37:48.262Z,7.43
2023-05-01T11:40:21.910Z,8.02
2023-05-01T11:42:49.542Z,10.57
2023-05-01T11:45:16.643Z,14.23
2023-05-01T11:47:43.390Z,9.88
2023-05-01T11:50:10.629Z,6.40
2023-05-01T11:52:52.874Z,8.32
2023-05-01T11:55:31.333Z,6.68
2023-05-01T11:57:58.048Z,7.32
2023-05-01T12:00:33.688Z,7.40
2023-05-01T12:03:07.098Z,12.80
2023-05-01T12:05:37.112Z,10.23
2023-05-01T12:08:14.128Z,8.32
2023-05-01T12:10:43.452Z,8.20
2023-05-01T12:13:12.218Z,8.02
2023-05-01T12:15:46.203Z,6.20
2023-05-01T12:18:14.383Z,10.40
2023-05-01T12:20:43.276Z,7.82
2023-05-01T12:23:12.100Z,9.70
2023-05-01T12:30:47.851Z,7.60
2023-05-01T12:33:18.197Z,9.07
2023-05-01T12:35:47.042Z,6.82
2023-05-01T12:38:24.124Z,5.97
2023-05-01T12:40:57.783Z,8.50
2023-05-01T12:43:31.498Z,9.68
2023-05-01T12:45:58.491Z,7.07
2023-05-01T12:48:25.363Z,10.48
2023-05-01T12:50:54.952Z,7.50
2023-05-01T12:53:26.200Z,7.97
2023-05-01T12:55:55.206Z,6.07
2023-05-01T13:00:53.143Z,6.78
2023-05-01T13:03:27.565Z,6.75
2023-05-01T13:05:59.244Z,9.40
2023-05-01T13:08:33.755Z,7.03
2023-05-01T13:11:03.994Z,7.95
2023-05-01T13:13:33.550Z,8.27
2023-05-01T13:16:25.080Z,7.90
2023-05-01T13:18:52.935Z,11.70
2023-05-01T13:21:21.542Z,9.10
2023-05-01T13:23:57.352Z,8.25
2023-05-01T13:26:35.873Z,11.15
2023-05-01T13:29:05.855Z,9.05
2023-05-01T13:31:32.765Z,9.02
2023-05-01T13:33:59.974Z,8.55
2023-05-01T13:36:33.086Z,8.93
2023-05-01T13:38:59.834Z,9.25
2023-05-01T13:41:27.703Z,9.52
2023-05-01T13:43:57.131Z,10.98
2023-05-01T13:46:26.549Z,11.65
2023-05-01T13:48:53.581Z,7.93
2023-05-01T13:51:22.400Z,6.65
2023-05-01T13:53:49.244Z,8.32
2023-05-01T13:56:16.323Z,10.27
2023-05-01T13:58:42.967Z,7.70
2023-05-01T14:01:18.978Z,9.68
2023-05-01T14:03:46.010Z,7.03
2023-05-01T14:06:15.027Z,12.98
2023-05-01T14:08:43.430Z,10.27
2023-05-01T14:11:11.608Z,7.20
2023-05-01T14:13:45.080Z,9.85
2023-05-01T14:16:21.011Z,8.95
2023-05-01T14:18:49.162Z,8.75
2023-05-01T14:21:17.306Z,9.50
2023-05-01T14:23:44.345Z,10.35
2023-05-01T14:26:12.203Z,8.73
2023-05-01T14:28:45.252Z,10.80
2023-05-01T14:31:18.177Z,8.10
2023-05-01T14:33:44.970Z,7.05
2023-05-01T14:36:12.647Z,9.43
2023-05-01T14:38:40.458Z,10.68
2023-05-01T14:41:10.060Z,10.38
2023-05-01T14:43:41.313Z,9.52
2023-05-01T14:46:08.196Z,10.70
2023-05-01T14:48:37.091Z,9.50
2023-05-01T14:51:10.655Z,11.15
2023-05-01T14:53:39.623Z,9.77
2023-05-01T14:58:33.082Z,9.05
2023-05-01T15:01:00.353Z,10.73
2023-05-01T15:03:27.238Z,8.63
2023-05-01T15:05:54.425Z,8.80
2023-05-01T15:08:21.369Z,8.77
2023-05-01T15:10:48.159Z,7.40
2023-05-01T15:13:14.780Z,8.52
2023-05-01T15:15:41.650Z,9.32
2023-05-01T15:18:08.346Z,9.05
2023-05-01T15:20:35.053Z,10.23
2023-05-01T15:23:01.708Z,9.55
2023-05-01T15:25:28.416Z,18.23
2023-05-01T15:27:55.733Z,8.43
2023-05-01T15:30:22.572Z,10.82
2023-05-01T15:32:49.371Z,9.40
2023-05-01T15:35:17.419Z,9.77
2023-05-01T15:37:44.067Z,9.18
2023-05-01T15:40:10.845Z,13.57
2023-05-01T15:42:37.536Z,8.45
2023-05-01T15:45:04.604Z,8.32
2023-05-01T15:47:31.344Z,10.70
2023-05-01T15:49:58.207Z,11.27
2023-05-01T15:52:25.713Z,8.95
2023-05-01T15:54:52.409Z,8.70
2023-05-01T15:57:19.053Z,9.05
2023-05-01T15:59:45.729Z,7.72
2023-05-01T16:02:12.506Z,8.60
2023-05-01T16:04:39.269Z,9.23
2023-05-01T16:07:06.283Z,9.90
2023-05-01T16:09:32.962Z,9.73
2023-05-01T16:12:01.788Z,10.48
2023-05-01T16:14:28.647Z,13.25
2023-05-01T16:16:55.557Z,12.25
2023-05-01T16:19:22.286Z,15.73
2023-05-01T16:21:49.021Z,16.67
2023-05-01T16:24:15.789Z,11.82
2023-05-01T16:26:42.625Z,13.73
2023-05-01T16:29:11.073Z,20.13
2023-05-01T16:31:47.558Z,12.90
2023-05-01T16:34:15.770Z,13.80
2023-05-01T16:36:42.805Z,13.50
2023-05-01T16:39:12.033Z,11.60
2023-05-01T16:41:44.727Z,10.30
2023-05-01T16:44:12.659Z,10.85
2023-05-01T16:46:54.160Z,11.55
2023-05-01T16:49:21.816Z,12.73
2023-05-01T16:51:48.713Z,14.45
2023-05-01T16:54:16.164Z,11.35
2023-05-01T16:56:42.886Z,10.98
2023-05-01T16:59:09.562Z,11.57
2023-05-01T17:01:36.291Z,12.60
2023-05-01T17:04:03.141Z,10.38
2023-05-01T17:06:29.883Z,13.35
2023-05-01T17:08:56.679Z,11.75
2023-05-01T17:11:24.695Z,11.90
2023-05-01T17:13:52.551Z,13.95
2023-05-01T17:16:22.207Z,13.75
2023-05-01T17:18:48.922Z,29.65
2023-05-01T17:21:15.953Z,21.25
2023-05-01T17:23:42.657Z,10.52
2023-05-01T17:26:09.313Z,11.25
2023-05-01T17:28:35.981Z,21.35
2023-05-01T17:31:02.659Z,12.18
2023-05-01T17:33:31.578Z,11.98
2023-05-01T17:36:00.633Z,14.75
2023-05-01T17:40:53.905Z,11.82
2023-05-01T17:43:20.870Z,12.55
2023-05-01T17:45:50.199Z,17.77
2023-05-01T17:48:19.671Z,10.88
2023-05-01T17:50:46.545Z,10.98
2023-05-01T17:53:13.175Z,13.98
2023-05-01T17:55:40.194Z,15.18
2023-05-01T17:58:07.208Z,19.27
2023-05-01T18:00:35.194Z,16.02
2023-05-01T18:03:02.019Z,20.15
2023-05-01T18:05:28.831Z,20.63
2023-05-01T18:07:56.062Z,31.75
2023-05-01T18:10:22.834Z,17.17
2023-05-01T18:12:49.956Z,21.70
2023-05-01T18:15:22.083Z,24.67
2023-05-01T18:17:49.946Z,18.83
2023-05-01T18:20:16.805Z,25.65
2023-05-01T18:22:43.431Z,29.35
2023-05-01T18:25:10.212Z,27.52
2023-05-01T18:27:41.745Z,31.45
2023-05-01T18:30:09.485Z,19.65
2023-05-01T18:32:47.554Z,28.60
2023-05-01T18:35:15.933Z,15.15
2023-05-01T18:37:44.076Z,17.58
2023-05-01T18:40:11.671Z,15.00
2023-05-01T18:42:40.694Z,21.25
2023-05-01T18:45:08.077Z,25.98
2023-05-01T18:47:34.742Z,30.33
2023-05-01T18:50:01.846Z,25.90
2023-05-01T18:52:29.478Z,16.33
2023-05-01T18:54:56.104Z,21.80
2023-05-01T18:57:23.103Z,15.95
2023-05-01T18:59:49.740Z,24.55
2023-05-01T19:02:16.473Z,24.02
2023-05-01T19:04:56.861Z,21.05
2023-05-01T19:07:25.889Z,13.80
2023-05-01T19:09:52.563Z,10.82
2023-05-01T19:12:19.245Z,16.35
2023-05-01T19:14:46.015Z,18.63
2023-05-01T19:17:12.714Z,13.60
2023-05-01T19:19:39.412Z,20.60
2023-05-01T19:22:07.269Z,15.85
2023-05-01T19:24:33.958Z,15.55
2023-05-01T19:27:03.484Z,19.50
2023-05-01T19:29:33.412Z,22.20
2023-05-01T19:32:19.085Z,14.48
2023-05-01T19:34:45.923Z,16.40
2023-05-01T19:37:12.616Z,15.35
2023-05-01T19:39:39.622Z,21.75
2023-05-01T19:42:06.499Z,16.02
2023-05-01T19:44:33.116Z,18.65
2023-05-01T19:46:59.907Z,18.65
2023-05-01T19:49:26.901Z,15.90
2023-05-01T19:51:54.317Z,14.30
2023-05-01T19:54:22.418Z,19.63
2023-05-01T19:56:51.840Z,17.45
2023-05-01T19:59:19.095Z,14.07
2023-05-01T20:01:46.044Z,22.25
2023-05-01T20:04:13.096Z,28.30
2023-05-01T20:06:39.930Z,18.33
2023-05-01T20:09:07.234Z,13.65
2023-05-01T20:11:33.982Z,16.48
2023-05-01T20:14:02.210Z,20.38
2023-05-01T20:16:30.221Z,17.60
2023-05-01T20:18:56.982Z,18.05
2023-05-01T20:21:23.713Z,22.73
2023-05-01T20:23:51.331Z,14.27
2023-05-01T20:26:19.079Z,16.35
2023-05-01T20:28:45.942Z,20.65
2023-05-01T20:31:13.526Z,20.50
2023-05-01T20:33:40.393Z,16.02
2023-05-01T20:36:07.439Z,16.85
2023-05-01T20:38:40.779Z,21.33
2023-05-01T20:41:07.583Z,14.45
2023-05-01T20:43:34.300Z,16.58
2023-05-01T20:46:01.162Z,22.92
2023-05-01T20:48:27.838Z,18.42
2023-05-01T20:50:54.564Z,16.23
2023-05-01T20:53:21.343Z,16.25
2023-05-01T20:55:49.919Z,24.42
2023-05-01T20:58:16.717Z,18.05
2023-05-01T21:00:43.433Z,19.13
2023-05-01T21:03:10.246Z,18.63
2023-05-01T21:05:37.192Z,16.05
2023-05-01T21:08:03.837Z,12.43
2023-05-01T21:10:30.572Z,22.75
2023-05-01T21:12:57.898Z,14.10
2023-05-01T21:15:24.940Z,23.55
2023-05-01T21:17:51.713Z,19.85
2023-05-01T21:20:32.380Z,28.45
2023-05-01T21:23:02.607Z,31.75
2023-05-01T21:25:31.838Z,25.02
2023-05-01T21:28:56.330Z,18.92
2023-05-01T21:31:27.566Z,21.95
2023-05-01T21:33:54.301Z,15.10
2023-05-01T21:36:21.028Z,16.50
2023-05-01T21:38:47.787Z,19.67
2023-05-01T21:41:15.827Z,15.93
2023-05-01T21:43:42.864Z,14.80
2023-05-01T21:46:16.967Z,17.38
2023-05-01T21:48:43.860Z,16.35
2023-05-01T21:51:10.706Z,20.20
2023-05-01T21:53:40.596Z,20.20
2023-05-01T21:56:07.666Z,18.33
2023-05-01T21:58:34.290Z,22.83
2023-05-01T22:01:01.009Z,19.73
2023-05-01T22:03:27.908Z,16.63
2023-05-01T22:05:54.642Z,18.52
2023-05-01T22:08:21.283Z,18.23
2023-05-01T22:10:49.066Z,23.27
2023-05-01T22:13:15.782Z,17.88
2023-05-01T22:15:42.591Z,17.50
2023-05-01T22:18:09.424Z,21.70
2023-05-01T22:20:36.163Z,19.05
2023-05-01T22:23:02.908Z,19.73
2023-05-01T22:25:29.652Z,22.90
2023-05-01T22:27:56.435Z,16.80
2023-05-01T22:30:23.169Z,24.17
2023-05-01T22:32:49.849Z,19.77
2023-05-01T22:35:16.789Z,18.75
2023-05-01T22:37:43.587Z,15.90
2023-05-01T22:40:10.585Z,16.50
2023-05-01T22:42:37.293Z,17.30
2023-05-01T22:45:04.308Z,17.48
2023-05-01T22:47:31.026Z,16.33
2023-05-01T22:49:57.847Z,13.27
2023-05-01T22:52:24.667Z,15.02
2023-05-01T22:54:52.691Z,14.35
2023-05-01T22:57:19.363Z,13.30
2023-05-01T22:59:46.030Z,11.68
2023-05-01T23:02:17.563Z,15.00
2023-05-01T23:04:44.673Z,15.38
2023-05-01T23:07:13.612Z,12.57
2023-05-01T23:09:40.551Z,22.95
2023-05-01T23:12:07.447Z,17.60
2023-05-01T23:14:36.967Z,23.27
2023-05-01T23:17:03.968Z,20.48
2023-05-01T23:19:30.596Z,17.90
2023-05-01T23:22:08.430Z,19.38
2023-05-01T23:24:55.303Z,21.35
2023-05-01T23:27:22.671Z,17.73
2023-05-01T23:29:57.587Z,22.05
2023-05-01T23:32:29.398Z,26.77
2023-05-01T23:35:01.095Z,27.67
2023-05-01T23:37:27.754Z,22.10
2023-05-01T23:39:54.467Z,20.17
2023-05-01T23:42:21.657Z,16.92
2023-05-01T23:44:48.606Z,17.88
2023-05-01T23:47:15.587Z,21.45
2023-05-01T23:49:42.402Z,16.55
2023-05-01T23:52:09.099Z,18.75
2023-05-01T23:54:35.756Z,16.88
2023-05-01T23:57:02.596Z,20.25
2023-05-01T23:59:29.244Z,19.30
